Terminal Aerodrome Forecast
Issued by NWS

Home | Current Version | Previous Version | Text Only | Print | Product List | Glossary On
Versions: 1 2 3 4 5 6 7 8 9 10 11 12 13 14 15 16 17 18
000
FTUS46 KSTO 262300
TAFRBL
TAF
KRBL 262327Z 2700/2724 16005KT P6SM BKN200
     FM271200 VRB04KT 4SM BR BKN200
      TEMPO 2712/2716 2SM BR
     FM271700 17006KT P6SM OVC200=

USA.gov is the U.S. government's official web portal to all federal, state and local government web resources and services.